aviador You're here:

SKBQ Decoded Metar

BARRANQUILLA in COLOMBIA
Report Time2018-07-16 14:00:00
UTC Time2018-07-16 14:18:19
Flight Rules vfr VFR
Wind020° at 10 kt
W.Decomp.*RWY 05: 9.2 kt HW 3.9 kt LCW
W.Rank020° ranks 2
Current wind is above 020° avg. (8.8)
Visibility9999 m
Phenomena:N/A
Clouds:N/A
Expected CloudBase > 1,600 ft AGL from Temp-Dew spread
CeilingNone
Temp29°C (ISA +14)
Dew Point25°C (79% RH)
Heat Index34.5°C
QNH1011 hPa
Density Alt2,129 ft
Elevation33 ft
Report Wrong Elevation
Raw Report
SKBQ 161400Z 02010KT CAVOK 29/25 A2985=

Extra information for SKBQ:More info

Metar Taf Metar & Taf Last 4 Metars F.Rules Stats Wind Profile Meteogram Temp Stats Airport Information Weather charts Add Link Nearby VenuesMetar ALERT Operation Metar Decoded Social comments